Time;durP1;ratioP1;P1;durP2;ratioP2;P2;SDS_P1;SDS_P2;PMS_P1;PMS_P2;Temp;Humidity;BMP_temperature;BMP_pressure;BME280_temperature;BME280_humidity;BME280_pressure;Samples;Min_cycle;Max_cycle;Signal;HPM_P1;HPM_P2
2023/11/30 00:00:05;;;;;;;1.20;1.10;;;;;;;;;;4981163;28;58379;-77
2023/11/30 00:02:32;;;;;;;1.27;1.17;;;;;;;;;;4980195;28;58814;-76
2023/11/30 00:04:57;;;;;;;1.42;1.33;;;;;;;;;;4983375;28;59853;-76
2023/11/30 00:07:22;;;;;;;1.43;1.30;;;;;;;;;;4979211;28;58366;-76
2023/11/30 00:09:47;;;;;;;1.52;1.30;;;;;;;;;;4982617;28;58639;-76
2023/11/30 00:12:12;;;;;;;1.20;1.13;;;;;;;;;;4980045;28;58341;-76
2023/11/30 00:14:37;;;;;;;1.55;1.45;;;;;;;;;;4981370;28;59207;-76
2023/11/30 00:17:03;;;;;;;1.20;1.10;;;;;;;;;;4979649;28;58984;-76
2023/11/30 00:19:28;;;;;;;1.23;1.13;;;;;;;;;;4981091;28;58520;-76
2023/11/30 00:21:53;;;;;;;1.45;1.35;;;;;;;;;;4979829;28;59400;-76
2023/11/30 00:24:18;;;;;;;1.25;1.20;;;;;;;;;;4982533;28;58714;-72
2023/11/30 00:26:44;;;;;;;1.10;1.00;;;;;;;;;;4981063;28;58609;-72
2023/11/30 00:29:09;;;;;;;1.35;1.25;;;;;;;;;;4981408;28;59506;-72
2023/11/30 00:31:34;;;;;;;1.10;0.97;;;;;;;;;;4979110;28;58829;-74
2023/11/30 00:33:59;;;;;;;1.15;1.05;;;;;;;;;;4981051;28;59224;-73
2023/11/30 00:36:24;;;;;;;1.25;1.15;;;;;;;;;;4980842;28;58423;-73
2023/11/30 00:38:50;;;;;;;1.47;1.37;;;;;;;;;;4980212;28;58340;-73
2023/11/30 00:41:15;;;;;;;1.10;1.07;;;;;;;;;;4981935;28;59503;-73
2023/11/30 00:43:40;;;;;;;1.00;1.00;;;;;;;;;;4977483;28;58490;-74
2023/11/30 00:46:05;;;;;;;1.27;1.17;;;;;;;;;;4982388;28;58518;-74
2023/11/30 00:48:31;;;;;;;1.20;1.10;;;;;;;;;;4979788;28;59781;-73
2023/11/30 00:50:56;;;;;;;1.33;1.23;;;;;;;;;;4979904;28;59264;-72
2023/11/30 00:53:21;;;;;;;1.38;1.30;;;;;;;;;;4983104;28;58362;-72
2023/11/30 00:55:46;;;;;;;1.20;1.10;;;;;;;;;;4982512;28;58546;-73
2023/11/30 00:58:11;;;;;;;1.10;1.03;;;;;;;;;;4978726;28;58282;-73
2023/11/30 01:00:36;;;;;;;1.52;1.08;;;;;;;;;;4978742;28;60649;-73
2023/11/30 01:03:02;;;;;;;1.20;1.10;;;;;;;;;;4980698;28;58703;-73
2023/11/30 01:05:27;;;;;;;0.80;0.80;;;;;;;;;;4980450;28;58452;-74
2023/11/30 01:07:52;;;;;;;0.93;0.93;;;;;;;;;;4981064;28;59253;-73
2023/11/30 01:10:17;;;;;;;0.80;0.80;;;;;;;;;;4978694;28;58557;-71
2023/11/30 01:12:42;;;;;;;1.20;1.10;;;;;;;;;;4980834;28;58676;-73
2023/11/30 01:15:08;;;;;;;1.20;1.10;;;;;;;;;;4980342;28;58528;-73
2023/11/30 01:17:33;;;;;;;1.10;1.10;;;;;;;;;;4979492;28;58531;-73
2023/11/30 01:19:58;;;;;;;0.80;0.80;;;;;;;;;;4982323;28;58765;-73
2023/11/30 01:22:23;;;;;;;1.07;1.07;;;;;;;;;;4980252;28;58772;-73
2023/11/30 01:24:48;;;;;;;0.77;0.77;;;;;;;;;;4979569;28;58465;-72
2023/11/30 01:27:15;;;;;;;1.33;1.00;;;;;;;;;;4979933;28;58699;-72
2023/11/30 01:29:41;;;;;;;0.80;0.80;;;;;;;;;;4980027;28;59022;-73
2023/11/30 01:32:06;;;;;;;0.90;0.90;;;;;;;;;;4980091;28;58263;-73
2023/11/30 01:34:31;;;;;;;0.80;0.80;;;;;;;;;;4981647;28;58557;-73
2023/11/30 01:36:56;;;;;;;0.70;0.70;;;;;;;;;;4981258;28;57886;-73
2023/11/30 01:39:21;;;;;;;1.13;1.03;;;;;;;;;;4979033;28;59287;-72
2023/11/30 01:41:47;;;;;;;0.80;0.80;;;;;;;;;;4978495;28;58762;-73
2023/11/30 01:44:12;;;;;;;1.25;1.15;;;;;;;;;;4983669;28;58359;-72
2023/11/30 01:46:37;;;;;;;1.30;1.20;;;;;;;;;;4978627;28;58331;-72
2023/11/30 01:49:04;;;;;;;1.00;1.00;;;;;;;;;;4980152;28;58872;-72
2023/11/30 01:51:31;;;;;;;1.35;0.85;;;;;;;;;;4977280;28;58156;-73
2023/11/30 01:53:56;;;;;;;1.13;0.90;;;;;;;;;;4984365;28;60568;-72
2023/11/30 01:56:22;;;;;;;1.00;1.00;;;;;;;;;;4982427;28;58466;-72
2023/11/30 01:58:48;;;;;;;0.60;0.60;;;;;;;;;;4984701;28;59253;-72
2023/11/30 02:01:13;;;;;;;0.98;0.98;;;;;;;;;;4982351;28;59390;-72
2023/11/30 02:03:38;;;;;;;0.80;0.80;;;;;;;;;;4985034;28;58472;-73
2023/11/30 02:06:04;;;;;;;0.70;0.70;;;;;;;;;;4982245;28;59616;-72
2023/11/30 02:08:29;;;;;;;0.60;0.60;;;;;;;;;;4979387;28;58972;-73
2023/11/30 02:10:54;;;;;;;0.55;0.55;;;;;;;;;;4982748;28;58395;-72
2023/11/30 02:13:19;;;;;;;0.60;0.60;;;;;;;;;;4984426;28;58478;-72
2023/11/30 02:15:44;;;;;;;0.57;0.57;;;;;;;;;;4979874;28;58732;-72
2023/11/30 02:18:09;;;;;;;1.00;0.90;;;;;;;;;;4984075;28;58481;-73
2023/11/30 02:20:34;;;;;;;0.80;0.80;;;;;;;;;;4981329;28;59009;-72
2023/11/30 02:23:00;;;;;;;0.85;0.85;;;;;;;;;;4986031;28;58379;-72
2023/11/30 02:25:25;;;;;;;0.57;0.50;;;;;;;;;;4983427;28;58492;-72
2023/11/30 02:27:50;;;;;;;0.70;0.70;;;;;;;;;;4979032;28;59717;-73
2023/11/30 02:30:15;;;;;;;1.10;1.00;;;;;;;;;;4982883;28;58425;-73
2023/11/30 02:32:41;;;;;;;0.60;0.60;;;;;;;;;;4982636;28;59353;-73
2023/11/30 02:35:06;;;;;;;0.90;0.90;;;;;;;;;;4983259;28;58804;-76
2023/11/30 02:37:31;;;;;;;1.20;0.90;;;;;;;;;;4983658;28;59654;-75
2023/11/30 02:39:56;;;;;;;0.80;0.80;;;;;;;;;;4981465;28;60288;-75
2023/11/30 02:42:21;;;;;;;0.80;0.80;;;;;;;;;;4983235;28;58332;-75
2023/11/30 02:44:46;;;;;;;0.65;0.65;;;;;;;;;;4982033;28;59887;-73
2023/11/30 02:47:12;;;;;;;0.47;0.47;;;;;;;;;;4981634;28;59739;-73
2023/11/30 02:49:37;;;;;;;0.73;0.73;;;;;;;;;;4975629;28;58499;-73
2023/11/30 02:52:02;;;;;;;0.65;0.65;;;;;;;;;;4975061;28;59248;-72
2023/11/30 02:54:27;;;;;;;0.57;0.57;;;;;;;;;;4981684;28;59884;-72
2023/11/30 02:56:52;;;;;;;0.73;0.47;;;;;;;;;;4983360;28;58437;-72
2023/11/30 02:59:18;;;;;;;0.80;0.80;;;;;;;;;;4980428;28;59194;-72
2023/11/30 03:01:44;;;;;;;0.80;0.80;;;;;;;;;;4983463;28;58475;-72
2023/11/30 03:04:09;;;;;;;0.88;0.88;;;;;;;;;;4980888;28;59180;-72
2023/11/30 03:06:34;;;;;;;0.70;0.70;;;;;;;;;;4982248;28;58333;-72
2023/11/30 03:08:59;;;;;;;0.70;0.70;;;;;;;;;;4981688;28;58198;-72
2023/11/30 03:11:24;;;;;;;0.70;0.70;;;;;;;;;;4981575;28;58403;-72
2023/11/30 03:13:49;;;;;;;0.40;0.40;;;;;;;;;;4981940;28;58656;-72
2023/11/30 03:16:21;;;;;;;0.77;0.77;;;;;;;;;;4981546;28;58476;-73
2023/11/30 03:18:46;;;;;;;0.63;0.63;;;;;;;;;;4980127;28;58711;-73
2023/11/30 03:21:19;;;;;;;0.70;0.70;;;;;;;;;;4982132;28;58378;-72
2023/11/30 03:23:44;;;;;;;0.77;0.77;;;;;;;;;;4981618;28;59241;-72
2023/11/30 03:26:09;;;;;;;0.40;0.40;;;;;;;;;;4982059;28;58546;-72
2023/11/30 03:28:34;;;;;;;0.85;0.85;;;;;;;;;;4982985;28;58598;-72
2023/11/30 03:31:00;;;;;;;0.73;0.73;;;;;;;;;;4981650;28;59351;-72
2023/11/30 03:33:25;;;;;;;0.40;0.40;;;;;;;;;;4980882;28;58601;-72
2023/11/30 03:35:51;;;;;;;0.40;0.40;;;;;;;;;;4981789;28;58412;-72
2023/11/30 03:38:16;;;;;;;0.60;0.60;;;;;;;;;;4979951;28;58567;-72
2023/11/30 03:40:41;;;;;;;0.80;0.80;;;;;;;;;;4976792;28;64044;-74
2023/11/30 03:43:06;;;;;;;1.03;1.03;;;;;;;;;;4984201;28;58291;-74
2023/11/30 03:45:32;;;;;;;0.50;0.50;;;;;;;;;;4975863;28;58381;-75
2023/11/30 03:47:57;;;;;;;0.60;0.60;;;;;;;;;;4981899;28;58492;-75
2023/11/30 03:50:22;;;;;;;0.50;0.50;;;;;;;;;;4981242;28;59660;-75
2023/11/30 03:52:48;;;;;;;0.55;0.55;;;;;;;;;;4982131;28;58428;-75
2023/11/30 03:55:13;;;;;;;0.80;0.70;;;;;;;;;;4982838;28;58350;-73
2023/11/30 03:57:38;;;;;;;0.53;0.53;;;;;;;;;;4981040;28;58561;-73
2023/11/30 04:00:04;;;;;;;0.90;0.70;;;;;;;;;;4979623;28;59080;-72
2023/11/30 04:02:29;;;;;;;0.77;0.77;;;;;;;;;;4977652;28;58405;-74
2023/11/30 04:04:55;;;;;;;0.60;0.60;;;;;;;;;;4981653;28;58411;-72
2023/11/30 04:07:20;;;;;;;0.55;0.55;;;;;;;;;;4982736;28;58418;-71
2023/11/30 04:09:46;;;;;;;0.60;0.60;;;;;;;;;;4982529;28;59259;-71
2023/11/30 04:12:12;;;;;;;0.52;0.52;;;;;;;;;;4981617;28;58385;-71
2023/11/30 04:14:37;;;;;;;0.70;0.70;;;;;;;;;;4981483;28;58501;-71
2023/11/30 04:17:02;;;;;;;0.57;0.57;;;;;;;;;;4981397;28;58386;-72
2023/11/30 04:19:27;;;;;;;0.40;0.40;;;;;;;;;;4979519;28;58640;-74
2023/11/30 04:21:53;;;;;;;0.52;0.52;;;;;;;;;;4980462;28;58672;-72
2023/11/30 04:24:18;;;;;;;0.50;0.50;;;;;;;;;;4982579;28;59492;-72
2023/11/30 04:26:43;;;;;;;0.68;0.68;;;;;;;;;;4980581;28;58663;-72
2023/11/30 04:29:08;;;;;;;0.60;0.60;;;;;;;;;;4981986;28;59246;-73
2023/11/30 04:31:33;;;;;;;0.40;0.40;;;;;;;;;;4979444;28;58371;-73
2023/11/30 04:33:58;;;;;;;0.70;0.70;;;;;;;;;;4983249;28;58497;-73
2023/11/30 04:36:23;;;;;;;0.60;0.60;;;;;;;;;;4982478;28;59211;-72
2023/11/30 04:38:49;;;;;;;0.80;0.80;;;;;;;;;;4982783;28;58362;-71
2023/11/30 04:41:14;;;;;;;0.70;0.70;;;;;;;;;;4981787;28;58454;-73
2023/11/30 04:43:40;;;;;;;0.60;0.60;;;;;;;;;;4980435;28;60364;-74
2023/11/30 04:46:05;;;;;;;0.40;0.40;;;;;;;;;;4980900;28;59229;-71
2023/11/30 04:48:30;;;;;;;0.40;0.40;;;;;;;;;;4982146;28;58462;-72
2023/11/30 04:50:55;;;;;;;0.50;0.50;;;;;;;;;;4980162;28;58471;-71
2023/11/30 04:53:20;;;;;;;0.55;0.55;;;;;;;;;;4982032;28;58442;-71
2023/11/30 04:55:45;;;;;;;0.60;0.60;;;;;;;;;;4981163;28;58560;-70
2023/11/30 04:58:11;;;;;;;0.50;0.50;;;;;;;;;;4978590;28;58548;-71
2023/11/30 05:00:36;;;;;;;1.13;0.90;;;;;;;;;;4980739;28;58359;-73
2023/11/30 05:03:01;;;;;;;0.60;0.60;;;;;;;;;;4980478;28;58719;-74
2023/11/30 05:05:26;;;;;;;0.43;0.43;;;;;;;;;;4978746;28;58985;-75
2023/11/30 05:07:51;;;;;;;0.70;0.70;;;;;;;;;;4979124;28;58412;-75
2023/11/30 05:10:16;;;;;;;0.70;0.70;;;;;;;;;;4981592;28;59462;-75
2023/11/30 05:12:42;;;;;;;0.67;0.67;;;;;;;;;;4981203;28;57658;-75
2023/11/30 05:15:08;;;;;;;0.47;0.47;;;;;;;;;;4980927;28;58486;-74
2023/11/30 05:17:33;;;;;;;0.60;0.60;;;;;;;;;;4979450;28;58684;-74
2023/11/30 05:19:58;;;;;;;0.60;0.60;;;;;;;;;;4980554;28;57763;-74
2023/11/30 05:22:23;;;;;;;0.60;0.60;;;;;;;;;;4979915;28;59408;-73
2023/11/30 05:24:50;;;;;;;0.50;0.50;;;;;;;;;;4979515;28;59254;-75
2023/11/30 05:27:15;;;;;;;0.40;0.40;;;;;;;;;;4980877;28;58082;-74
2023/11/30 05:29:40;;;;;;;0.57;0.57;;;;;;;;;;4982844;28;59684;-74
2023/11/30 05:32:05;;;;;;;0.47;0.47;;;;;;;;;;4985920;28;58411;-74
2023/11/30 05:34:30;;;;;;;0.60;0.60;;;;;;;;;;4985904;28;59419;-73
2023/11/30 05:36:55;;;;;;;0.40;0.40;;;;;;;;;;4985737;28;58617;-73
2023/11/30 05:39:21;;;;;;;0.60;0.60;;;;;;;;;;4983330;28;58441;-74
2023/11/30 05:41:46;;;;;;;0.60;0.60;;;;;;;;;;4982976;28;58279;-73
2023/11/30 05:44:11;;;;;;;0.43;0.43;;;;;;;;;;4985528;28;59905;-73
2023/11/30 05:46:37;;;;;;;0.40;0.40;;;;;;;;;;4981536;28;58429;-73
2023/11/30 05:49:03;;;;;;;0.60;0.60;;;;;;;;;;4984570;28;59475;-73
2023/11/30 05:51:28;;;;;;;0.50;0.50;;;;;;;;;;4984129;28;59188;-73
2023/11/30 05:53:53;;;;;;;0.20;0.20;;;;;;;;;;4984426;28;59651;-73
2023/11/30 05:56:18;;;;;;;0.50;0.50;;;;;;;;;;4982735;28;58886;-73
2023/11/30 05:58:43;;;;;;;0.60;0.60;;;;;;;;;;4985465;28;58417;-73
2023/11/30 06:01:09;;;;;;;0.30;0.30;;;;;;;;;;4982194;28;58448;-73
2023/11/30 06:03:34;;;;;;;0.40;0.40;;;;;;;;;;4984397;28;58394;-70
2023/11/30 06:05:59;;;;;;;0.30;0.30;;;;;;;;;;4983492;28;58358;-71
2023/11/30 06:08:24;;;;;;;0.77;0.60;;;;;;;;;;4983635;28;58838;-70
2023/11/30 06:10:49;;;;;;;0.50;0.38;;;;;;;;;;4982622;28;58378;-71
2023/11/30 06:13:15;;;;;;;0.40;0.40;;;;;;;;;;4983819;28;58420;-71
2023/11/30 06:15:40;;;;;;;0.40;0.40;;;;;;;;;;4981825;28;58965;-72
2023/11/30 06:18:05;;;;;;;0.40;0.40;;;;;;;;;;4983750;28;58032;-71
2023/11/30 06:20:31;;;;;;;0.38;0.38;;;;;;;;;;4980264;28;58464;-70
2023/11/30 06:22:56;;;;;;;0.35;0.35;;;;;;;;;;4984579;28;59248;-71
2023/11/30 06:25:21;;;;;;;0.87;0.50;;;;;;;;;;4984385;28;58625;-72
2023/11/30 06:27:46;;;;;;;0.50;0.50;;;;;;;;;;4983639;28;58899;-71
2023/11/30 06:30:12;;;;;;;0.50;0.50;;;;;;;;;;4981331;28;58438;-70
2023/11/30 06:32:37;;;;;;;0.40;0.40;;;;;;;;;;4983758;28;57966;-72
2023/11/30 06:35:02;;;;;;;1.02;0.45;;;;;;;;;;4983779;28;59494;-70
2023/11/30 06:37:27;;;;;;;0.57;0.57;;;;;;;;;;4981730;28;57851;-72
2023/11/30 06:39:53;;;;;;;0.40;0.40;;;;;;;;;;4979752;28;59928;-71
2023/11/30 06:42:18;;;;;;;0.47;0.47;;;;;;;;;;4979120;28;59261;-70
2023/11/30 06:44:44;;;;;;;0.60;0.60;;;;;;;;;;4982501;28;58421;-70
2023/11/30 06:47:09;;;;;;;0.52;0.52;;;;;;;;;;4984352;28;59478;-72
2023/11/30 06:49:34;;;;;;;0.40;0.40;;;;;;;;;;4983464;28;58702;-71
2023/11/30 06:52:00;;;;;;;0.60;0.57;;;;;;;;;;4981972;28;58089;-71
2023/11/30 06:54:25;;;;;;;0.50;0.50;;;;;;;;;;4980765;28;59334;-71
2023/11/30 06:56:50;;;;;;;0.40;0.40;;;;;;;;;;4982509;28;58842;-72
2023/11/30 06:59:16;;;;;;;0.40;0.40;;;;;;;;;;4982353;28;59069;-72
2023/11/30 07:01:41;;;;;;;0.55;0.55;;;;;;;;;;4980277;28;58394;-71
2023/11/30 07:04:06;;;;;;;0.40;0.40;;;;;;;;;;4981956;28;58361;-71
2023/11/30 07:06:32;;;;;;;0.65;0.65;;;;;;;;;;4981929;28;59329;-70
2023/11/30 07:08:57;;;;;;;0.60;0.60;;;;;;;;;;4980590;28;58823;-71
2023/11/30 07:11:22;;;;;;;1.03;0.87;;;;;;;;;;4981201;28;58636;-71
2023/11/30 07:13:47;;;;;;;0.50;0.50;;;;;;;;;;4979734;28;59697;-71
2023/11/30 07:16:12;;;;;;;0.67;0.67;;;;;;;;;;4981698;28;59002;-71
2023/11/30 07:18:37;;;;;;;0.50;0.50;;;;;;;;;;4980866;28;58421;-71
2023/11/30 07:21:04;;;;;;;0.50;0.50;;;;;;;;;;4980122;28;59154;-70
2023/11/30 07:23:29;;;;;;;0.38;0.38;;;;;;;;;;4984017;28;58451;-71
2023/11/30 07:25:54;;;;;;;0.43;0.43;;;;;;;;;;4983769;28;58492;-71
2023/11/30 07:28:19;;;;;;;0.40;0.40;;;;;;;;;;4982999;28;58864;-70
2023/11/30 07:30:45;;;;;;;0.57;0.57;;;;;;;;;;4981978;28;58669;-70
2023/11/30 07:33:10;;;;;;;0.33;0.33;;;;;;;;;;4982960;28;59461;-70
2023/11/30 07:35:36;;;;;;;0.40;0.40;;;;;;;;;;4983440;28;59275;-72
2023/11/30 07:38:02;;;;;;;0.55;0.55;;;;;;;;;;4982259;28;58430;-71
2023/11/30 07:40:27;;;;;;;0.50;0.50;;;;;;;;;;4981536;28;58684;-71
2023/11/30 07:42:52;;;;;;;0.50;0.50;;;;;;;;;;4983640;28;58439;-71
2023/11/30 07:45:18;;;;;;;0.38;0.38;;;;;;;;;;4981155;28;59352;-71
2023/11/30 07:47:43;;;;;;;0.30;0.30;;;;;;;;;;4981256;28;59271;-74
2023/11/30 07:50:08;;;;;;;0.60;0.60;;;;;;;;;;4983684;28;58345;-72
2023/11/30 07:52:37;;;;;;;0.60;0.60;;;;;;;;;;4979907;28;59488;-71
2023/11/30 07:55:02;;;;;;;0.40;0.40;;;;;;;;;;4976977;28;58886;-71
2023/11/30 07:57:27;;;;;;;2.23;0.97;;;;;;;;;;4981324;28;58538;-72
2023/11/30 07:59:52;;;;;;;0.55;0.50;;;;;;;;;;4979195;28;58830;-70
2023/11/30 08:02:17;;;;;;;0.50;0.50;;;;;;;;;;4978360;28;58787;-75
2023/11/30 08:04:42;;;;;;;0.40;0.40;;;;;;;;;;4980015;28;58397;-71
2023/11/30 08:07:08;;;;;;;0.90;0.80;;;;;;;;;;4982858;28;58952;-72
2023/11/30 08:09:33;;;;;;;0.50;0.50;;;;;;;;;;4983323;28;58649;-72
2023/11/30 08:11:58;;;;;;;1.95;0.60;;;;;;;;;;4980451;28;58654;-72
2023/11/30 08:14:23;;;;;;;0.68;0.65;;;;;;;;;;4979685;28;58744;-71
2023/11/30 08:16:48;;;;;;;1.17;0.70;;;;;;;;;;4982446;28;58495;-71
2023/11/30 08:19:13;;;;;;;0.50;0.50;;;;;;;;;;4980676;28;60057;-72
2023/11/30 08:21:40;;;;;;;0.77;0.77;;;;;;;;;;4982849;28;58474;-74
2023/11/30 08:24:06;;;;;;;1.60;0.90;;;;;;;;;;4980121;28;60208;-74
2023/11/30 08:26:31;;;;;;;0.70;0.70;;;;;;;;;;4980346;28;58489;-72
2023/11/30 08:28:57;;;;;;;0.70;0.70;;;;;;;;;;4981537;28;58315;-72
2023/11/30 08:31:22;;;;;;;1.07;0.77;;;;;;;;;;4981418;28;58835;-72
2023/11/30 08:33:47;;;;;;;1.05;1.05;;;;;;;;;;4980967;28;58499;-72
2023/11/30 08:36:12;;;;;;;0.83;0.83;;;;;;;;;;4982783;28;58753;-72
2023/11/30 08:38:37;;;;;;;1.00;0.70;;;;;;;;;;4979934;28;60177;-72
2023/11/30 08:41:03;;;;;;;1.10;1.00;;;;;;;;;;4980413;28;59714;-71
2023/11/30 08:43:28;;;;;;;0.75;0.75;;;;;;;;;;4978501;28;58440;-72
2023/11/30 08:45:53;;;;;;;2.27;1.20;;;;;;;;;;4979562;28;58574;-72
2023/11/30 08:48:18;;;;;;;1.40;1.30;;;;;;;;;;4981826;28;58227;-73
2023/11/30 08:50:43;;;;;;;1.10;1.00;;;;;;;;;;4979929;28;59326;-71
2023/11/30 08:53:09;;;;;;;1.50;1.20;;;;;;;;;;4979499;28;58514;-73
2023/11/30 08:55:34;;;;;;;1.58;1.48;;;;;;;;;;4980995;28;58478;-71
2023/11/30 08:57:59;;;;;;;1.85;1.58;;;;;;;;;;4978562;28;59441;-71
2023/11/30 09:00:25;;;;;;;1.57;1.30;;;;;;;;;;4979095;28;58506;-72
2023/11/30 09:02:50;;;;;;;1.88;1.73;;;;;;;;;;4983721;28;58116;-72
2023/11/30 09:05:15;;;;;;;1.63;1.43;;;;;;;;;;4984396;28;59445;-71
2023/11/30 09:07:40;;;;;;;1.97;1.87;;;;;;;;;;4983102;28;58397;-74
2023/11/30 09:10:05;;;;;;;1.73;1.63;;;;;;;;;;4984675;28;59334;-72
2023/11/30 09:12:31;;;;;;;1.77;1.67;;;;;;;;;;4980643;28;58821;-72
2023/11/30 09:14:57;;;;;;;2.10;1.77;;;;;;;;;;4984519;28;58463;-71
2023/11/30 09:17:22;;;;;;;2.15;1.95;;;;;;;;;;4985511;28;59373;-71
2023/11/30 09:19:47;;;;;;;1.80;1.70;;;;;;;;;;4984140;28;58537;-71
2023/11/30 09:22:12;;;;;;;2.47;1.93;;;;;;;;;;4983623;28;58814;-71
2023/11/30 09:24:37;;;;;;;2.17;1.70;;;;;;;;;;4984887;28;59202;-71
2023/11/30 09:27:03;;;;;;;2.10;1.75;;;;;;;;;;4983848;28;58418;-73
2023/11/30 09:29:28;;;;;;;2.13;1.93;;;;;;;;;;4981697;28;59817;-71
2023/11/30 09:31:53;;;;;;;2.15;1.95;;;;;;;;;;4984675;28;58430;-72
2023/11/30 09:34:19;;;;;;;2.03;1.83;;;;;;;;;;4985553;28;58503;-71
2023/11/30 09:36:44;;;;;;;2.03;1.80;;;;;;;;;;4983024;28;58417;-71
2023/11/30 09:39:09;;;;;;;2.73;2.37;;;;;;;;;;4983473;28;59051;-71
2023/11/30 09:41:36;;;;;;;2.75;2.42;;;;;;;;;;4983476;28;58478;-72
2023/11/30 09:44:03;;;;;;;2.38;2.10;;;;;;;;;;4985578;28;59326;-73
2023/11/30 09:46:28;;;;;;;2.10;1.90;;;;;;;;;;4982783;28;59185;-73
2023/11/30 09:48:53;;;;;;;3.13;2.40;;;;;;;;;;4985574;28;59221;-74
2023/11/30 09:51:20;;;;;;;2.20;1.92;;;;;;;;;;4980743;28;59309;-74
2023/11/30 09:53:45;;;;;;;2.58;2.13;;;;;;;;;;4984594;28;58483;-74
2023/11/30 09:56:10;;;;;;;2.70;2.15;;;;;;;;;;4984690;28;58205;-74
2023/11/30 09:58:37;;;;;;;1.95;1.80;;;;;;;;;;4983450;28;58769;-73
2023/11/30 10:01:02;;;;;;;3.47;2.90;;;;;;;;;;4982191;28;58417;-73
2023/11/30 10:03:34;;;;;;;2.53;2.33;;;;;;;;;;4985276;28;59241;-74
2023/11/30 10:06:00;;;;;;;2.20;2.00;;;;;;;;;;4982909;28;59049;-74
2023/11/30 10:08:25;;;;;;;2.20;2.00;;;;;;;;;;4985956;28;58227;-74
2023/11/30 10:10:50;;;;;;;3.57;2.60;;;;;;;;;;4981257;28;59184;-74
2023/11/30 10:13:15;;;;;;;2.60;2.40;;;;;;;;;;4985292;28;58334;-73
2023/11/30 10:15:40;;;;;;;3.28;2.95;;;;;;;;;;4983054;28;57794;-73
2023/11/30 10:18:05;;;;;;;2.63;2.42;;;;;;;;;;4984261;28;58433;-73
2023/11/30 10:20:30;;;;;;;3.40;2.60;;;;;;;;;;4981209;28;58429;-73
2023/11/30 10:22:56;;;;;;;3.10;2.47;;;;;;;;;;4985405;28;59690;-74
2023/11/30 10:25:21;;;;;;;2.60;2.37;;;;;;;;;;4982907;28;59008;-74
2023/11/30 10:27:51;;;;;;;3.60;3.23;;;;;;;;;;4983249;28;58374;-74
2023/11/30 10:30:18;;;;;;;3.10;2.30;;;;;;;;;;4983035;28;59300;-74
2023/11/30 10:32:43;;;;;;;3.40;2.90;;;;;;;;;;4982878;28;58333;-74
2023/11/30 10:35:11;;;;;;;2.55;2.35;;;;;;;;;;4982324;28;58281;-74
2023/11/30 10:37:40;;;;;;;2.83;2.50;;;;;;;;;;4983674;28;59874;-74
2023/11/30 10:40:08;;;;;;;3.78;3.15;;;;;;;;;;4982399;28;58347;-74
2023/11/30 10:42:34;;;;;;;4.68;3.38;;;;;;;;;;4983028;28;59629;-74
2023/11/30 10:45:01;;;;;;;2.72;2.53;;;;;;;;;;4983209;28;58463;-75
2023/11/30 10:47:28;;;;;;;3.70;2.90;;;;;;;;;;4985568;28;58138;-74
2023/11/30 10:49:53;;;;;;;3.20;2.85;;;;;;;;;;4982991;28;59436;-74
2023/11/30 10:52:19;;;;;;;3.20;2.90;;;;;;;;;;4984842;28;60010;-74
2023/11/30 10:55:03;;;;;;;3.97;2.97;;;;;;;;;;4980054;28;62186;-72
2023/11/30 10:57:29;;;;;;;4.25;3.85;;;;;;;;;;4971394;28;59176;-72
2023/11/30 11:00:01;;;;;;;3.10;2.80;;;;;;;;;;4983262;28;58442;-72
2023/11/30 11:02:37;;;;;;;3.97;3.58;;;;;;;;;;4983663;28;59602;-71
2023/11/30 11:05:07;;;;;;;3.63;3.33;;;;;;;;;;4982037;28;59983;-74
2023/11/30 11:07:33;;;;;;;3.90;3.05;;;;;;;;;;4982322;28;58419;-74
2023/11/30 11:10:00;;;;;;;2.87;2.60;;;;;;;;;;4983382;28;58358;-74
2023/11/30 11:12:26;;;;;;;4.03;3.17;;;;;;;;;;4981435;28;58487;-73
2023/11/30 11:15:04;;;;;;;2.40;2.20;;;;;;;;;;4983688;28;58397;-73
2023/11/30 11:17:29;;;;;;;3.47;2.63;;;;;;;;;;4982072;28;58924;-73
2023/11/30 11:19:58;;;;;;;2.97;2.57;;;;;;;;;;4981529;28;58327;-74
2023/11/30 11:22:23;;;;;;;2.72;2.47;;;;;;;;;;4979893;28;59272;-73
2023/11/30 11:24:54;;;;;;;2.83;2.47;;;;;;;;;;4980842;28;59367;-74
2023/11/30 11:27:28;;;;;;;2.83;2.33;;;;;;;;;;4983447;28;58437;-74
2023/11/30 11:29:55;;;;;;;2.92;2.63;;;;;;;;;;4983495;28;59822;-74
2023/11/30 11:32:20;;;;;;;3.30;2.75;;;;;;;;;;4985057;28;60346;-74
2023/11/30 11:34:45;;;;;;;2.92;2.47;;;;;;;;;;4985296;28;58520;-74
2023/11/30 11:37:11;;;;;;;2.40;2.20;;;;;;;;;;4986499;28;58213;-74
2023/11/30 11:39:36;;;;;;;2.53;2.33;;;;;;;;;;4984123;28;58402;-74
2023/11/30 11:42:02;;;;;;;2.58;2.33;;;;;;;;;;4982230;28;58603;-74
2023/11/30 11:44:27;;;;;;;2.92;2.63;;;;;;;;;;4982184;28;59026;-74
2023/11/30 11:46:52;;;;;;;3.22;2.90;;;;;;;;;;4982320;28;58463;-74
2023/11/30 11:49:17;;;;;;;2.30;2.10;;;;;;;;;;4982836;28;58495;-74
2023/11/30 11:51:44;;;;;;;1.80;1.70;;;;;;;;;;4982230;28;58395;-74
2023/11/30 11:54:19;;;;;;;2.35;2.15;;;;;;;;;;4982573;28;58359;-74
2023/11/30 11:56:50;;;;;;;1.90;1.80;;;;;;;;;;4981747;28;62079;-74
2023/11/30 11:59:22;;;;;;;2.15;1.92;;;;;;;;;;4981699;28;58411;-74
2023/11/30 12:01:48;;;;;;;1.98;1.77;;;;;;;;;;4979105;28;65125;-74
2023/11/30 12:04:24;;;;;;;2.72;2.53;;;;;;;;;;4979924;28;58830;-72
2023/11/30 12:06:49;;;;;;;1.92;1.70;;;;;;;;;;4983104;28;58235;-72
2023/11/30 12:09:14;;;;;;;2.60;2.37;;;;;;;;;;4981534;28;59393;-71
2023/11/30 12:11:40;;;;;;;1.80;1.60;;;;;;;;;;4979909;28;58990;-73
2023/11/30 12:14:05;;;;;;;1.70;1.50;;;;;;;;;;4980261;28;58420;-74
2023/11/30 12:16:31;;;;;;;2.17;1.98;;;;;;;;;;4983363;28;58377;-74
2023/11/30 12:18:56;;;;;;;3.00;2.38;;;;;;;;;;4978667;28;58860;-74
2023/11/30 12:21:22;;;;;;;1.48;1.38;;;;;;;;;;4980677;28;59604;-74
2023/11/30 12:23:47;;;;;;;1.95;1.75;;;;;;;;;;4980036;28;58962;-75
2023/11/30 12:26:12;;;;;;;1.95;1.85;;;;;;;;;;4983244;28;58458;-74
2023/11/30 12:28:37;;;;;;;1.98;1.85;;;;;;;;;;4982277;28;59216;-74
2023/11/30 12:31:03;;;;;;;1.90;1.80;;;;;;;;;;4978506;28;59179;-74
2023/11/30 12:33:28;;;;;;;1.77;1.67;;;;;;;;;;4982236;28;58466;-74
2023/11/30 12:35:54;;;;;;;2.60;1.90;;;;;;;;;;4981400;28;58506;-74
2023/11/30 12:38:19;;;;;;;1.65;1.40;;;;;;;;;;4981259;28;58945;-73
2023/11/30 12:40:44;;;;;;;2.25;2.08;;;;;;;;;;4981886;28;58507;-75
2023/11/30 12:43:09;;;;;;;2.37;2.00;;;;;;;;;;4981716;28;58985;-74
2023/11/30 12:45:35;;;;;;;1.50;1.40;;;;;;;;;;4980736;28;58149;-74
2023/11/30 12:48:00;;;;;;;1.58;1.48;;;;;;;;;;4981897;28;59297;-74
2023/11/30 12:50:25;;;;;;;1.40;1.30;;;;;;;;;;4980246;28;58827;-74
2023/11/30 12:52:51;;;;;;;1.65;1.55;;;;;;;;;;4980793;28;58469;-74
2023/11/30 12:55:17;;;;;;;1.35;1.25;;;;;;;;;;4981378;28;58628;-74
2023/11/30 12:57:42;;;;;;;1.48;1.38;;;;;;;;;;4979169;28;59850;-74
2023/11/30 13:00:13;;;;;;;1.50;1.40;;;;;;;;;;4981725;28;58204;-74
2023/11/30 13:02:40;;;;;;;1.50;1.40;;;;;;;;;;4980713;28;59720;-75
2023/11/30 13:05:05;;;;;;;1.80;1.40;;;;;;;;;;4981503;28;58472;-75
2023/11/30 13:07:30;;;;;;;1.60;1.50;;;;;;;;;;4978716;28;60582;-74
2023/11/30 13:09:55;;;;;;;1.42;1.33;;;;;;;;;;4979676;28;59067;-74
2023/11/30 13:12:21;;;;;;;0.97;0.87;;;;;;;;;;4977668;28;58456;-74
2023/11/30 13:14:46;;;;;;;1.50;1.40;;;;;;;;;;4982119;28;59232;-72
2023/11/30 13:17:11;;;;;;;1.43;1.33;;;;;;;;;;4981321;28;58988;-72
2023/11/30 13:19:36;;;;;;;1.17;1.08;;;;;;;;;;4981550;28;58269;-73
2023/11/30 13:22:01;;;;;;;0.90;0.90;;;;;;;;;;4978034;28;59308;-73
2023/11/30 13:24:27;;;;;;;1.50;1.40;;;;;;;;;;4981953;28;59234;-74
2023/11/30 13:26:52;;;;;;;1.10;1.00;;;;;;;;;;4978087;28;59376;-74
2023/11/30 13:29:17;;;;;;;1.53;1.43;;;;;;;;;;4980391;28;59150;-74
2023/11/30 13:31:43;;;;;;;1.23;1.10;;;;;;;;;;4980168;28;58499;-74
2023/11/30 13:34:08;;;;;;;0.80;0.80;;;;;;;;;;4979980;28;58858;-74
2023/11/30 13:36:33;;;;;;;1.40;1.30;;;;;;;;;;4982615;28;58529;-74
2023/11/30 13:39:00;;;;;;;1.33;0.83;;;;;;;;;;4979938;28;58494;-74
2023/11/30 13:41:25;;;;;;;1.48;1.38;;;;;;;;;;4979286;28;59405;-74
2023/11/30 13:43:50;;;;;;;1.00;1.00;;;;;;;;;;4980712;28;57957;-74
2023/11/30 13:46:15;;;;;;;1.13;1.07;;;;;;;;;;4993993;28;60315;-74
2023/11/30 13:48:41;;;;;;;1.73;1.40;;;;;;;;;;4980647;28;59689;-73
2023/11/30 13:51:06;;;;;;;1.48;1.38;;;;;;;;;;4983363;28;58445;-74
2023/11/30 13:53:32;;;;;;;1.42;1.25;;;;;;;;;;4985521;28;59212;-74
2023/11/30 13:55:58;;;;;;;1.10;1.00;;;;;;;;;;4983353;28;58482;-74
2023/11/30 13:58:24;;;;;;;2.80;1.30;;;;;;;;;;4982836;28;58052;-72
2023/11/30 14:00:49;;;;;;;1.90;1.65;;;;;;;;;;4980717;28;59544;-69
2023/11/30 14:03:16;;;;;;;3.25;1.45;;;;;;;;;;4983271;28;58463;-69
2023/11/30 14:05:41;;;;;;;1.83;1.35;;;;;;;;;;4983313;28;58501;-69
2023/11/30 14:08:06;;;;;;;1.88;1.45;;;;;;;;;;4984107;28;59330;-69
2023/11/30 14:10:32;;;;;;;1.63;1.43;;;;;;;;;;4981645;28;58403;-69
2023/11/30 14:12:57;;;;;;;3.40;1.65;;;;;;;;;;4983760;28;60448;-69
2023/11/30 14:15:22;;;;;;;1.30;1.20;;;;;;;;;;4983500;28;58949;-69
2023/11/30 14:17:49;;;;;;;3.35;1.40;;;;;;;;;;4982899;28;58446;-70
2023/11/30 14:20:15;;;;;;;4.22;2.42;;;;;;;;;;4982001;28;60383;-71
2023/11/30 14:22:40;;;;;;;1.63;1.52;;;;;;;;;;4982030;28;59382;-70
2023/11/30 14:25:08;;;;;;;2.13;1.13;;;;;;;;;;4984146;28;58561;-68
2023/11/30 14:27:33;;;;;;;4.78;1.70;;;;;;;;;;4981266;28;59602;-70
2023/11/30 14:29:58;;;;;;;1.95;1.63;;;;;;;;;;4982654;28;58485;-73
2023/11/30 14:32:23;;;;;;;5.33;1.40;;;;;;;;;;4982634;28;59770;-73